KBBG

Branson Airport

Branson, Missouri, USA
METAR KBBG 190045Z 34006KT 2 1/2SM BR OVC003 02/02 A3018
Observed Flight Rules
Nov-19 @ 00:45 UTC (28 minutes ago) Instrument Flight Rules
Wind Visibility Clouds Conditions
340° at 6 knots 2 1/2 miles
  • Overcast at 300' AGL
  • Mist
Temperatures Readings
Current 2°C / 36°F
Dewpoint 2°C / 36°F
Humidity 100%
Altimeter 30.18" Hg
Pressure 1022 hPa
Elevation 397
METAR KBBG 190045Z 34006KT 2 1/2SM BR OVC003 02/02 A3018
Observed Flight Rules
Nov-19 @ 00:45 UTC
(28 minutes ago)
LIFR
Wind Visibility
340° at 6 knots 2 1/2 miles
Clouds
  • Overcast at 300' AGL
Conditions
  • Mist
Temperature Dewpoint
2°C / 36°F 2°C / 36°F
Humidity Altimeter Pressure
100% 30.18" Hg 1022 hPa